Time;durP1;ratioP1;P1;durP2;ratioP2;P2;SDS_P1;SDS_P2;PMS_P1;PMS_P2;Temp;Humidity;BMP_temperature;BMP_pressure;BME280_temperature;BME280_humidity;BME280_pressure;Samples;Min_cycle;Max_cycle;Signal;HPM_P1;HPM_P2
2022/03/28 00:00:19;;;;;;;7.82;7.07;;;;;;;8.63;74.22;101961.59;4909797;27;20130;-78
2022/03/28 00:02:45;;;;;;;8.90;7.95;;;;;;;8.57;74.43;101961.94;4897516;27;20254;-78
2022/03/28 00:05:13;;;;;;;8.43;7.10;;;;;;;8.54;74.39;101970.88;4893361;27;20029;-78
2022/03/28 00:07:42;;;;;;;8.68;7.78;;;;;;;8.51;74.40;101957.06;4909174;27;21088;-77
2022/03/28 00:10:07;;;;;;;8.35;7.50;;;;;;;8.42;74.47;101963.72;4894339;27;20013;-77
2022/03/28 00:12:33;;;;;;;9.70;8.70;;;;;;;8.36;74.91;101956.13;4935858;27;20335;-77
2022/03/28 00:14:59;;;;;;;9.65;8.55;;;;;;;8.37;75.48;101952.56;4915628;27;20089;-77
2022/03/28 00:17:24;;;;;;;9.77;8.13;;;;;;;8.31;75.29;101955.59;4916812;27;20630;-77
2022/03/28 00:19:49;;;;;;;10.10;8.30;;;;;;;8.24;75.79;101950.66;4922412;27;20025;-77
2022/03/28 00:22:15;;;;;;;9.45;8.50;;;;;;;8.24;75.80;101941.91;4925377;27;20033;-77
2022/03/28 00:24:40;;;;;;;9.80;8.32;;;;;;;8.25;75.95;101936.56;4904468;27;20009;-77
2022/03/28 00:27:06;;;;;;;10.70;8.40;;;;;;;8.25;75.29;101936.56;4908612;27;20520;-76
2022/03/28 00:29:31;;;;;;;9.50;8.40;;;;;;;8.18;75.46;101939.63;4892271;27;20793;-77
2022/03/28 00:31:56;;;;;;;10.48;8.55;;;;;;;8.14;75.84;101936.34;4905475;27;20295;-77
2022/03/28 00:34:23;;;;;;;10.50;8.05;;;;;;;8.15;75.85;101932.78;4903513;27;20446;-77
2022/03/28 00:36:51;;;;;;;9.82;8.75;;;;;;;8.06;76.55;101930.69;4924969;27;20649;-77
2022/03/28 00:39:20;;;;;;;8.73;7.90;;;;;;;8.08;76.67;101926.19;4901216;27;20365;-77
2022/03/28 00:41:49;;;;;;;9.45;8.48;;;;;;;8.12;76.20;101927.66;4888884;27;20137;-77
2022/03/28 00:44:15;;;;;;;10.57;8.48;;;;;;;7.98;76.86;101925.00;4887033;27;20013;-77
2022/03/28 00:46:40;;;;;;;10.18;8.80;;;;;;;7.97;76.75;101926.81;4925475;27;20021;-76
2022/03/28 00:49:06;;;;;;;13.18;9.07;;;;;;;7.92;76.98;101931.47;4900358;27;20766;-77
2022/03/28 00:51:32;;;;;;;10.82;8.90;;;;;;;7.97;77.13;101925.97;4881254;27;20045;-77
2022/03/28 00:53:57;;;;;;;10.27;8.95;;;;;;;7.95;77.96;101926.03;4899041;27;20011;-77
2022/03/28 00:56:23;;;;;;;10.25;8.98;;;;;;;7.94;77.36;101920.84;4898910;27;20429;-77
2022/03/28 00:58:49;;;;;;;10.45;9.00;;;;;;;7.90;77.55;101909.66;4900125;27;20028;-77
2022/03/28 01:01:14;;;;;;;10.10;8.55;;;;;;;8.06;77.07;101914.84;4888489;27;20100;-77
2022/03/28 01:03:40;;;;;;;10.40;9.30;;;;;;;7.97;77.13;101895.19;4883539;27;20956;-77
2022/03/28 01:06:05;;;;;;;10.48;8.40;;;;;;;7.89;77.49;101906.16;4884101;27;20021;-77
2022/03/28 01:08:31;;;;;;;10.10;9.10;;;;;;;7.95;77.14;101910.22;4897182;27;20159;-77
2022/03/28 01:10:56;;;;;;;9.60;8.60;;;;;;;7.94;77.68;101910.31;4898554;27;20044;-76
2022/03/28 01:13:23;;;;;;;10.88;8.82;;;;;;;7.97;77.16;101904.88;4903814;27;20491;-77
2022/03/28 01:15:48;;;;;;;12.50;9.20;;;;;;;7.91;77.53;101896.38;4893576;27;20213;-77
2022/03/28 01:18:14;;;;;;;12.10;9.02;;;;;;;8.07;76.85;101900.75;4902380;27;20345;-77
2022/03/28 01:20:40;;;;;;;11.93;8.70;;;;;;;8.08;76.95;101897.19;4896179;27;20120;-76
2022/03/28 01:23:06;;;;;;;10.88;8.98;;;;;;;8.05;76.61;101890.28;4884926;27;20941;-77
2022/03/28 01:25:31;;;;;;;10.70;8.95;;;;;;;7.88;77.27;101888.66;4896726;27;20471;-77
2022/03/28 01:27:58;;;;;;;9.57;8.48;;;;;;;7.79;77.63;101877.81;4900516;28;20021;-78
2022/03/28 01:30:25;;;;;;;9.50;8.48;;;;;;;7.74;77.66;101883.34;4903462;27;20016;-76
2022/03/28 01:32:51;;;;;;;11.02;8.90;;;;;;;7.82;77.69;101878.47;4895538;28;20387;-77
2022/03/28 01:35:32;;;;;;;10.70;9.18;;;;;;;7.74;77.37;101878.94;4896004;27;20013;-77
2022/03/28 01:37:58;;;;;;;10.65;9.48;;;;;;;7.67;78.21;101876.75;4935671;28;20116;-75
2022/03/28 01:40:23;;;;;;;10.20;9.18;;;;;;;7.66;77.86;101875.06;4898829;27;20484;-77
2022/03/28 01:42:49;;;;;;;10.35;8.95;;;;;;;7.64;78.21;101871.66;4909309;28;20543;-77
2022/03/28 01:45:15;;;;;;;9.95;8.63;;;;;;;7.61;78.58;101866.56;4920908;27;20074;-77
2022/03/28 01:47:41;;;;;;;10.27;8.98;;;;;;;7.63;78.63;101869.94;4889148;27;20044;-76
2022/03/28 01:50:07;;;;;;;9.82;8.82;;;;;;;7.63;78.18;101862.03;4920294;27;20461;-77
2022/03/28 01:52:33;;;;;;;10.82;8.52;;;;;;;7.56;78.09;101858.94;4904698;27;20803;-77
2022/03/28 01:54:58;;;;;;;10.80;9.15;;;;;;;7.46;78.34;101871.81;4921968;27;20223;-77
2022/03/28 01:57:23;;;;;;;9.50;8.48;;;;;;;7.48;78.28;101864.66;4902542;27;20589;-77
2022/03/28 01:59:49;;;;;;;10.60;8.60;;;;;;;7.46;77.93;101855.13;4908952;27;20074;-77
2022/03/28 02:02:14;;;;;;;10.88;8.55;;;;;;;7.43;77.82;101850.91;4913660;27;20357;-76
2022/03/28 02:04:39;;;;;;;9.77;8.55;;;;;;;7.35;78.07;101861.03;4933174;27;20701;-77
2022/03/28 02:07:05;;;;;;;11.52;8.80;;;;;;;7.35;78.07;101850.50;4945147;27;20028;-77
2022/03/28 02:09:30;;;;;;;9.40;8.40;;;;;;;7.44;77.63;101849.13;4914557;27;20232;-77
2022/03/28 02:11:56;;;;;;;14.43;8.18;;;;;;;7.33;77.46;101852.34;4914528;27;20036;-77
2022/03/28 02:14:21;;;;;;;12.15;7.68;;;;;;;7.26;78.04;101849.22;4921952;27;20013;-77
2022/03/28 02:16:47;;;;;;;10.55;8.18;;;;;;;7.25;78.14;101841.41;4905616;27;20489;-76
2022/03/28 02:19:12;;;;;;;11.45;8.80;;;;;;;7.18;78.29;101838.31;4928496;27;20082;-77
2022/03/28 02:21:38;;;;;;;11.02;8.93;;;;;;;7.18;78.50;101836.50;4917865;28;20471;-77
2022/03/28 02:24:03;;;;;;;10.05;8.20;;;;;;;7.20;78.42;101841.69;4921320;27;20049;-77
2022/03/28 02:26:29;;;;;;;9.52;8.52;;;;;;;7.11;78.44;101829.91;4938140;27;20017;-76
2022/03/28 02:28:54;;;;;;;9.52;8.27;;;;;;;7.16;78.17;101835.78;4924331;27;20433;-76
2022/03/28 02:31:19;;;;;;;10.60;8.85;;;;;;;7.11;79.26;101835.16;4941587;27;20670;-77
2022/03/28 02:33:45;;;;;;;10.43;8.77;;;;;;;7.14;78.15;101831.53;4954518;27;20510;-76
2022/03/28 02:36:11;;;;;;;11.63;8.85;;;;;;;7.05;78.39;101825.00;4956542;27;20065;-77
2022/03/28 02:38:36;;;;;;;10.25;8.38;;;;;;;6.98;79.40;101826.25;4940829;27;20039;-77
2022/03/28 02:41:01;;;;;;;10.43;9.00;;;;;;;6.93;79.47;101826.53;4912544;28;20025;-76
2022/03/28 02:43:27;;;;;;;10.20;8.65;;;;;;;6.92;79.26;101823.97;4956661;27;20045;-76
2022/03/28 02:45:52;;;;;;;9.60;8.43;;;;;;;6.91;79.40;101823.16;4918865;27;20523;-77
2022/03/28 02:48:18;;;;;;;10.82;8.57;;;;;;;6.82;79.66;101816.59;4913877;27;20438;-77
2022/03/28 02:50:44;;;;;;;9.48;8.48;;;;;;;6.87;79.44;101817.19;4922594;27;20487;-77
2022/03/28 02:53:10;;;;;;;11.13;8.52;;;;;;;6.87;79.06;101813.72;4938511;27;20576;-77
2022/03/28 02:55:35;;;;;;;10.90;9.35;;;;;;;6.86;79.47;101809.38;4931219;27;20028;-76
2022/03/28 02:58:01;;;;;;;10.95;8.73;;;;;;;6.92;79.17;101803.78;4914414;27;20494;-77
2022/03/28 03:00:26;;;;;;;10.95;8.98;;;;;;;6.92;79.25;101811.66;4893527;28;20498;-77
2022/03/28 03:02:52;;;;;;;10.30;9.13;;;;;;;7.01;78.71;101805.88;4941843;27;20467;-77
2022/03/28 03:05:17;;;;;;;10.38;9.00;;;;;;;6.86;78.96;101804.13;4918427;28;20029;-77
2022/03/28 03:07:42;;;;;;;10.57;8.88;;;;;;;6.79;79.27;101802.78;4914211;28;20087;-77
2022/03/28 03:10:09;;;;;;;10.27;9.15;;;;;;;6.80;79.29;101796.59;4925611;27;20405;-76
2022/03/28 03:12:34;;;;;;;11.35;8.90;;;;;;;6.69;78.99;101789.28;4928650;27;20519;-77
2022/03/28 03:14:59;;;;;;;12.93;9.40;;;;;;;6.68;78.98;101787.59;4931958;27;20605;-77
2022/03/28 03:17:25;;;;;;;10.88;8.55;;;;;;;6.64;78.93;101783.44;4913423;27;20013;-77
2022/03/28 03:19:50;;;;;;;11.30;8.38;;;;;;;6.64;79.06;101786.94;4930040;27;20970;-76
2022/03/28 03:22:16;;;;;;;10.60;8.93;;;;;;;6.61;79.31;101786.22;4913368;27;20696;-77
2022/03/28 03:24:45;;;;;;;10.32;8.73;;;;;;;6.55;79.47;101784.78;4914965;27;20124;-77
2022/03/28 03:27:11;;;;;;;11.23;9.30;;;;;;;6.63;79.15;101784.38;4898777;27;20025;-77
2022/03/28 03:29:36;;;;;;;10.93;9.50;;;;;;;6.66;79.13;101779.78;4896583;27;20020;-77
2022/03/28 03:32:03;;;;;;;11.85;8.50;;;;;;;6.55;78.72;101782.16;4898409;27;20155;-77
2022/03/28 03:34:28;;;;;;;10.70;8.73;;;;;;;6.40;79.33;101783.00;4914314;27;20540;-77
2022/03/28 03:36:54;;;;;;;10.63;8.73;;;;;;;6.42;78.99;101775.91;4906744;27;20047;-77
2022/03/28 03:39:21;;;;;;;9.48;8.57;;;;;;;6.43;79.77;101773.19;4932067;27;20983;-76
2022/03/28 03:41:46;;;;;;;10.85;9.45;;;;;;;6.36;79.91;101783.19;4930051;27;20989;-77
2022/03/28 03:44:12;;;;;;;9.82;8.75;;;;;;;6.37;79.85;101778.75;4904809;27;20029;-77
2022/03/28 03:46:37;;;;;;;12.27;10.38;;;;;;;6.35;79.66;101778.00;4911315;27;20029;-77
2022/03/28 03:49:02;;;;;;;14.63;10.98;;;;;;;6.41;79.42;101777.66;4926322;27;20025;-76
2022/03/28 03:51:28;;;;;;;14.10;11.20;;;;;;;6.28;80.14;101780.13;4927696;27;20048;-77
2022/03/28 03:53:53;;;;;;;14.15;11.13;;;;;;;6.27;80.62;101774.94;4924045;27;20327;-77
2022/03/28 03:56:18;;;;;;;16.13;10.90;;;;;;;6.26;80.34;101774.09;4925165;27;20024;-78
2022/03/28 03:58:44;;;;;;;16.52;12.27;;;;;;;6.25;79.82;101769.78;4902105;27;20027;-78
2022/03/28 04:01:09;;;;;;;18.02;12.70;;;;;;;6.22;79.89;101758.56;4935031;27;20012;-78
2022/03/28 04:03:38;;;;;;;16.38;12.27;;;;;;;6.19;80.08;101760.44;4922131;27;20384;-76
2022/03/28 04:06:05;;;;;;;15.00;11.77;;;;;;;6.17;80.46;101761.44;4963354;27;20032;-78
2022/03/28 04:08:30;;;;;;;15.43;12.07;;;;;;;6.11;80.10;101754.75;4950846;27;20425;-76
2022/03/28 04:10:56;;;;;;;17.60;12.68;;;;;;;6.25;80.45;101753.16;5010620;27;20428;-77
2022/03/28 04:13:21;;;;;;;18.77;13.25;;;;;;;6.11;80.35;101760.00;5012216;27;20333;-77
2022/03/28 04:15:47;;;;;;;19.30;12.88;;;;;;;6.23;80.32;101749.75;4980129;27;20028;-77
2022/03/28 04:18:12;;;;;;;23.05;14.63;;;;;;;6.17;79.99;101762.28;4995295;27;20005;-77
2022/03/28 04:20:38;;;;;;;19.08;13.80;;;;;;;6.23;79.70;101747.97;4995593;27;20028;-76
2022/03/28 04:23:03;;;;;;;19.48;14.05;;;;;;;6.17;79.78;101746.53;4993911;27;20045;-77
2022/03/28 04:25:28;;;;;;;19.15;13.85;;;;;;;6.12;79.85;101745.94;4978288;27;20473;-77
2022/03/28 04:27:54;;;;;;;19.27;13.35;;;;;;;6.05;80.13;101749.84;4962516;27;20548;-81
2022/03/28 04:30:19;;;;;;;17.33;13.27;;;;;;;6.02;80.12;101736.84;4894671;27;20165;-78
2022/03/28 04:32:45;;;;;;;18.55;12.88;;;;;;;6.17;79.23;101730.75;4901221;27;20013;-81
2022/03/28 04:35:11;;;;;;;17.48;12.77;;;;;;;6.05;79.59;101734.06;4908840;27;20493;-80
2022/03/28 04:37:37;;;;;;;16.70;12.98;;;;;;;5.93;79.53;101727.66;4918442;27;20074;-80
2022/03/28 04:40:04;;;;;;;18.50;12.52;;;;;;;5.96;79.94;101737.16;4907660;27;20307;-81
2022/03/28 04:42:30;;;;;;;17.38;12.40;;;;;;;5.89;80.60;101730.53;4908189;27;20106;-81
2022/03/28 04:44:56;;;;;;;16.23;12.38;;;;;;;5.97;80.08;101718.69;4886325;27;20013;-80
2022/03/28 04:47:21;;;;;;;17.38;11.75;;;;;;;6.26;78.97;101726.78;4890305;27;20037;-81
2022/03/28 04:49:47;;;;;;;15.98;11.98;;;;;;;5.97;78.78;101726.59;4895036;27;20492;-78
2022/03/28 04:52:12;;;;;;;16.63;12.63;;;;;;;5.93;79.45;101732.06;4881143;28;20029;-81
2022/03/28 04:54:38;;;;;;;17.02;12.80;;;;;;;5.93;79.42;101729.44;4893343;27;20630;-81
2022/03/28 04:57:06;;;;;;;16.58;12.43;;;;;;;6.24;77.65;101733.06;4879048;27;20032;-82
2022/03/28 04:59:32;;;;;;;17.23;12.77;;;;;;;5.87;78.85;101733.25;4903714;27;20112;-83
2022/03/28 05:01:58;;;;;;;16.70;12.18;;;;;;;5.83;79.75;101737.78;4893043;27;20571;-83
2022/03/28 05:04:23;;;;;;;15.48;12.02;;;;;;;5.82;79.56;101745.75;4896526;27;20059;-82
2022/03/28 05:06:49;;;;;;;14.07;10.95;;;;;;;5.85;79.27;101740.34;4900313;27;20009;-83
2022/03/28 05:09:14;;;;;;;13.35;10.57;;;;;;;5.77;79.96;101746.00;4929801;27;20996;-82
2022/03/28 05:11:40;;;;;;;17.95;10.85;;;;;;;5.68;80.71;101743.84;4889899;27;20032;-83
2022/03/28 05:14:05;;;;;;;13.07;10.73;;;;;;;5.66;80.30;101745.72;4908154;27;20914;-83
2022/03/28 05:16:31;;;;;;;14.38;11.10;;;;;;;5.61;80.49;101726.72;4889204;28;20192;-81
2022/03/28 05:18:56;;;;;;;13.38;10.65;;;;;;;5.61;80.84;101735.47;4904100;27;20476;-81
2022/03/28 05:21:22;;;;;;;12.35;10.38;;;;;;;5.56;80.62;101728.75;4904005;27;20634;-79
2022/03/28 05:23:47;;;;;;;15.32;10.85;;;;;;;5.54;80.80;101727.97;4921385;28;20424;-82
2022/03/28 05:26:13;;;;;;;13.90;10.32;;;;;;;5.53;80.15;101718.41;4912874;28;20496;-81
2022/03/28 05:28:38;;;;;;;13.43;10.70;;;;;;;5.47;80.50;101724.81;4872665;28;20028;-76
2022/03/28 05:31:03;;;;;;;16.50;10.65;;;;;;;5.44;80.34;101725.84;4913565;28;20833;-80
2022/03/28 05:33:29;;;;;;;16.40;10.65;;;;;;;5.41;80.60;101720.72;4882018;28;20014;-79
2022/03/28 05:35:54;;;;;;;15.40;9.98;;;;;;;5.38;80.73;101722.69;4892631;28;20287;-79
2022/03/28 05:38:20;;;;;;;12.85;10.43;;;;;;;5.39;81.44;101721.75;4902791;28;20025;-78
2022/03/28 05:40:45;;;;;;;12.43;9.90;;;;;;;5.44;81.06;101728.47;4882557;28;20237;-79
2022/03/28 05:43:10;;;;;;;12.00;9.73;;;;;;;5.43;81.06;101728.53;4889094;28;20052;-78
2022/03/28 05:45:36;;;;;;;11.38;10.13;;;;;;;5.46;81.23;101723.97;4869039;28;20029;-78
2022/03/28 05:48:02;;;;;;;14.18;10.98;;;;;;;5.49;81.39;101715.94;4905817;28;20602;-73
2022/03/28 05:50:27;;;;;;;14.00;10.40;;;;;;;5.51;81.30;101715.84;4866307;28;20090;-72
2022/03/28 05:52:54;;;;;;;12.80;9.73;;;;;;;5.50;81.21;101709.75;4868289;28;20404;-73
2022/03/28 05:55:20;;;;;;;12.18;10.25;;;;;;;5.50;81.10;101712.41;4881737;28;20025;-73
2022/03/28 05:57:45;;;;;;;14.13;10.20;;;;;;;5.56;80.86;101710.38;4897703;28;20014;-73
2022/03/28 06:00:13;;;;;;;13.63;9.85;;;;;;;5.58;81.47;101721.63;4902234;28;20018;-73
2022/03/28 06:02:39;;;;;;;12.90;10.07;;;;;;;5.65;80.66;101704.63;4901607;28;20037;-73
2022/03/28 06:05:06;;;;;;;12.10;10.05;;;;;;;5.74;80.97;101706.78;4895901;28;20099;-73
2022/03/28 06:07:31;;;;;;;12.63;9.93;;;;;;;5.76;80.40;101704.06;4885110;28;20783;-74
2022/03/28 06:09:57;;;;;;;14.32;10.52;;;;;;;5.82;80.50;101707.22;4867087;28;20010;-74
2022/03/28 06:12:23;;;;;;;11.45;10.07;;;;;;;5.92;80.32;101711.97;4883531;28;20018;-73
2022/03/28 06:14:49;;;;;;;14.40;10.23;;;;;;;6.07;80.73;101711.16;4904040;28;20516;-73
2022/03/28 06:17:25;;;;;;;12.38;10.18;;;;;;;6.16;80.11;101708.06;4892181;28;20025;-73
2022/03/28 06:19:50;;;;;;;13.02;10.40;;;;;;;6.24;80.36;101712.88;4875183;28;20010;-73
2022/03/28 06:22:16;;;;;;;14.52;10.07;;;;;;;6.53;79.52;101710.41;4871355;28;20060;-73
2022/03/28 06:24:42;;;;;;;11.25;9.88;;;;;;;6.63;79.18;101708.94;4901968;28;20015;-73
2022/03/28 06:27:08;;;;;;;15.05;10.43;;;;;;;6.62;79.51;101717.78;4913123;28;20010;-73
2022/03/28 06:29:33;;;;;;;11.38;9.95;;;;;;;6.78;79.23;101709.88;4915226;28;20006;-73
2022/03/28 06:31:58;;;;;;;15.00;9.85;;;;;;;7.03;78.34;101711.06;4892051;28;20050;-73
2022/03/28 06:34:24;;;;;;;14.73;10.75;;;;;;;7.05;78.92;101709.19;4916787;28;20485;-73
2022/03/28 06:36:50;;;;;;;13.40;10.27;;;;;;;7.15;78.84;101722.63;4899539;28;20318;-74
2022/03/28 06:39:15;;;;;;;12.88;10.13;;;;;;;7.16;78.54;101719.94;4918294;27;20017;-73
2022/03/28 06:41:41;;;;;;;13.05;10.40;;;;;;;7.33;78.64;101710.19;4904477;27;20962;-74
2022/03/28 06:44:08;;;;;;;12.00;10.23;;;;;;;7.57;78.76;101711.34;4901003;28;20049;-73
2022/03/28 06:46:34;;;;;;;13.32;10.80;;;;;;;7.61;78.71;101713.78;4894294;27;20544;-74
2022/03/28 06:48:59;;;;;;;13.00;10.93;;;;;;;7.59;79.07;101716.53;4920964;27;20025;-74
2022/03/28 06:51:25;;;;;;;12.85;11.13;;;;;;;7.77;78.67;101718.94;4893312;28;20013;-74
2022/03/28 06:53:50;;;;;;;14.55;10.70;;;;;;;7.89;78.75;101708.50;4902874;28;20438;-74
2022/03/28 06:56:16;;;;;;;12.48;11.10;;;;;;;7.99;78.47;101700.88;4890563;27;20028;-74
2022/03/28 06:58:42;;;;;;;16.80;11.35;;;;;;;8.12;78.70;101698.28;4908784;28;20587;-73
2022/03/28 07:01:09;;;;;;;14.52;12.50;;;;;;;8.25;78.11;101701.84;4895926;28;20395;-74
2022/03/28 07:03:34;;;;;;;15.48;11.85;;;;;;;8.41;77.85;101703.50;4870398;28;20148;-74
2022/03/28 07:06:01;;;;;;;14.82;11.52;;;;;;;8.51;76.70;101704.63;4896524;28;20017;-73
2022/03/28 07:08:26;;;;;;;17.63;11.10;;;;;;;8.64;76.31;101695.94;4891967;27;20195;-74
2022/03/28 07:10:52;;;;;;;13.77;11.57;;;;;;;8.80;76.32;101699.25;4905259;28;20017;-73
2022/03/28 07:13:18;;;;;;;12.75;11.10;;;;;;;8.92;75.84;101693.13;4923888;27;20008;-73
2022/03/28 07:15:43;;;;;;;12.52;10.70;;;;;;;8.98;75.55;101691.88;4908326;27;20051;-73
2022/03/28 07:18:09;;;;;;;12.60;10.70;;;;;;;9.05;75.41;101689.69;4896769;28;20364;-73
2022/03/28 07:20:35;;;;;;;15.15;11.38;;;;;;;9.11;75.17;101686.66;4872914;28;20097;-74
2022/03/28 07:23:00;;;;;;;12.80;11.48;;;;;;;9.27;74.71;101683.78;4891255;28;20033;-74
2022/03/28 07:25:26;;;;;;;12.43;11.00;;;;;;;9.32;75.02;101694.03;4891517;28;21006;-74
2022/03/28 07:27:52;;;;;;;12.98;11.68;;;;;;;9.42;74.79;101684.53;4886802;28;20013;-73
2022/03/28 07:30:18;;;;;;;12.52;11.30;;;;;;;9.51;74.75;101683.88;4913437;28;20005;-74
2022/03/28 07:32:44;;;;;;;15.98;11.68;;;;;;;9.54;74.45;101680.19;4889450;28;20068;-74
2022/03/28 07:35:10;;;;;;;12.88;11.60;;;;;;;9.63;74.71;101685.69;4869624;28;20066;-74
2022/03/28 07:37:37;;;;;;;13.90;12.30;;;;;;;9.70;74.68;101682.59;4899845;28;20709;-74
2022/03/28 07:40:03;;;;;;;13.45;11.90;;;;;;;9.77;74.86;101679.44;4892588;28;20523;-75
2022/03/28 07:42:28;;;;;;;14.63;12.25;;;;;;;9.91;74.68;101677.59;4902034;28;20056;-75
2022/03/28 07:44:56;;;;;;;15.90;11.88;;;;;;;10.03;74.70;101675.88;4894961;27;20510;-74
2022/03/28 07:47:23;;;;;;;13.63;11.75;;;;;;;10.03;74.17;101673.25;4896438;27;20728;-74
2022/03/28 07:49:49;;;;;;;14.90;12.15;;;;;;;10.19;73.82;101681.75;4883961;27;20112;-75
2022/03/28 07:52:14;;;;;;;13.77;12.27;;;;;;;10.36;73.26;101682.34;4883328;28;20091;-74
2022/03/28 07:54:40;;;;;;;14.85;12.10;;;;;;;10.45;73.22;101673.75;4875985;27;20589;-74
2022/03/28 07:57:05;;;;;;;15.45;12.23;;;;;;;10.53;73.35;101670.53;4887567;28;20024;-74
2022/03/28 07:59:31;;;;;;;16.77;12.90;;;;;;;10.59;73.55;101668.28;4905571;28;20274;-74
2022/03/28 08:01:56;;;;;;;15.50;13.43;;;;;;;10.75;73.70;101665.31;4876825;27;20026;-75
2022/03/28 08:04:22;;;;;;;15.13;13.63;;;;;;;10.77;72.04;101673.16;4907047;28;20577;-74
2022/03/28 08:06:47;;;;;;;15.38;13.77;;;;;;;10.84;72.32;101666.41;4924530;28;20469;-74
2022/03/28 08:09:12;;;;;;;15.77;13.82;;;;;;;10.91;72.03;101667.66;4874328;27;20012;-73
2022/03/28 08:11:38;;;;;;;17.73;14.55;;;;;;;10.97;72.09;101659.25;4940508;27;20168;-74
2022/03/28 08:14:04;;;;;;;17.00;13.30;;;;;;;11.17;71.31;101660.38;4904850;27;20029;-74
2022/03/28 08:16:30;;;;;;;17.40;14.43;;;;;;;11.27;70.50;101657.84;4908637;27;20992;-74
2022/03/28 08:18:56;;;;;;;17.52;14.13;;;;;;;11.47;70.67;101660.75;4884772;27;21100;-74
2022/03/28 08:21:21;;;;;;;18.40;14.88;;;;;;;11.48;69.92;101650.03;4915849;27;20020;-73
2022/03/28 08:23:47;;;;;;;16.45;13.82;;;;;;;11.59;70.00;101643.03;4901739;28;20613;-73
2022/03/28 08:26:12;;;;;;;18.92;14.68;;;;;;;11.83;68.62;101645.53;4886515;28;20044;-72
2022/03/28 08:28:39;;;;;;;21.80;14.52;;;;;;;11.83;68.68;101641.09;4889038;28;20557;-73
2022/03/28 08:31:05;;;;;;;19.90;14.82;;;;;;;11.92;68.00;101639.50;4916698;28;20734;-73
2022/03/28 08:33:30;;;;;;;16.27;14.57;;;;;;;12.08;67.66;101641.78;4883287;28;20014;-72
2022/03/28 08:35:56;;;;;;;17.25;14.48;;;;;;;12.30;66.99;101632.09;4912212;28;20494;-74
2022/03/28 08:38:22;;;;;;;16.08;14.38;;;;;;;12.55;66.41;101636.22;4902712;28;20060;-75
2022/03/28 08:40:48;;;;;;;21.63;14.80;;;;;;;12.63;65.89;101627.59;4885392;28;20196;-75
2022/03/28 08:43:17;;;;;;;15.38;13.57;;;;;;;12.89;65.51;101618.28;4875689;28;20034;-75
2022/03/28 08:45:42;;;;;;;20.15;14.32;;;;;;;13.12;64.50;101627.91;4879656;28;20520;-74
2022/03/28 08:48:08;;;;;;;17.02;15.25;;;;;;;13.27;64.75;101615.97;4880803;28;20324;-73
2022/03/28 08:50:36;;;;;;;17.02;15.30;;;;;;;13.47;64.75;101622.22;4881632;28;20268;-74
2022/03/28 08:53:01;;;;;;;20.30;15.90;;;;;;;13.68;63.92;101624.00;4881404;28;20045;-75
2022/03/28 08:55:27;;;;;;;18.45;15.80;;;;;;;13.92;63.96;101623.63;4880020;28;20549;-74
2022/03/28 08:57:52;;;;;;;17.52;15.50;;;;;;;14.21;63.19;101622.81;4883364;28;20684;-73
2022/03/28 09:00:18;;;;;;;19.73;15.75;;;;;;;14.43;60.29;101625.19;4885059;28;20175;-73
2022/03/28 09:02:47;;;;;;;18.17;15.35;;;;;;;14.68;60.45;101620.31;4925664;28;20167;-74
2022/03/28 09:05:17;;;;;;;17.83;14.82;;;;;;;14.89;58.75;101614.81;4871515;28;20422;-74
2022/03/28 09:07:42;;;;;;;16.92;15.20;;;;;;;15.15;59.18;101616.00;4888785;28;20175;-75
2022/03/28 09:10:15;;;;;;;19.95;14.95;;;;;;;15.22;56.76;101614.44;4879663;28;20581;-76
2022/03/28 09:13:10;;;;;;;19.58;15.68;;;;;;;15.44;57.16;101606.06;4883786;28;20086;-76
2022/03/28 09:15:55;;;;;;;18.23;15.57;;;;;;;15.94;56.23;101602.16;4896225;28;20502;-76
2022/03/28 09:18:31;;;;;;;20.80;17.08;;;;;;;16.20;54.47;101600.56;4877174;28;20033;-76
2022/03/28 09:21:12;;;;;;;22.80;16.40;;;;;;;16.56;53.97;101595.19;4865165;28;20021;-75
2022/03/28 09:23:42;;;;;;;18.52;16.08;;;;;;;17.27;54.45;101598.66;4898055;27;20044;-76
2022/03/28 09:26:22;;;;;;;19.48;16.60;;;;;;;17.39;52.19;101594.72;4949594;27;20112;-76
2022/03/28 09:29:01;;;;;;;21.15;16.88;;;;;;;17.90;51.61;101592.03;4931615;28;20470;-76
2022/03/28 09:31:34;;;;;;;19.77;17.17;;;;;;;18.17;50.53;101592.75;4900222;28;20017;-76
2022/03/28 09:34:16;;;;;;;19.95;17.17;;;;;;;18.60;49.04;101580.03;4914909;28;20875;-75
2022/03/28 09:36:45;;;;;;;21.58;18.13;;;;;;;19.14;49.45;101583.97;4912687;28;20468;-76
2022/03/28 09:39:21;;;;;;;21.40;18.20;;;;;;;19.27;46.99;101580.75;4892019;28;20889;-76
2022/03/28 09:41:59;;;;;;;22.15;18.02;;;;;;;18.88;46.43;101575.16;4920907;28;20025;-76
2022/03/28 09:44:38;;;;;;;22.27;18.48;;;;;;;19.26;47.16;101574.50;4933336;28;20489;-76
2022/03/28 09:47:14;;;;;;;20.35;18.05;;;;;;;19.42;45.30;101567.41;4955944;27;20021;-76
2022/03/28 09:49:41;;;;;;;25.08;17.15;;;;;;;19.78;44.23;101559.66;4937023;28;20425;-75
2022/03/28 09:52:09;;;;;;;22.90;18.30;;;;;;;20.37;43.10;101563.63;4902155;28;20460;-75
2022/03/28 09:54:46;;;;;;;21.52;17.08;;;;;;;21.01;43.75;101556.94;4879360;28;20737;-76
2022/03/28 09:57:13;;;;;;;20.38;17.02;;;;;;;21.28;43.61;101553.59;4901214;28;20049;-76
2022/03/28 09:59:42;;;;;;;20.58;17.27;;;;;;;22.01;42.14;101547.38;4872310;28;20002;-76
2022/03/28 10:02:20;;;;;;;24.98;17.85;;;;;;;22.37;39.87;101548.31;4895902;28;20025;-76
2022/03/28 10:04:46;;;;;;;20.13;16.98;;;;;;;22.50;39.32;101540.31;4893048;28;20021;-75
2022/03/28 10:07:12;;;;;;;22.02;17.58;;;;;;;22.43;39.86;101532.16;4889264;28;20086;-75
2022/03/28 10:09:38;;;;;;;19.33;16.83;;;;;;;22.98;38.77;101536.88;4907683;27;20020;-75
2022/03/28 10:12:04;;;;;;;19.58;16.25;;;;;;;22.48;37.32;101531.59;4906172;28;20449;-75
2022/03/28 10:14:30;;;;;;;20.25;16.45;;;;;;;22.68;37.38;101539.81;4951669;28;20418;-75
2022/03/28 10:16:56;;;;;;;21.40;16.42;;;;;;;23.23;37.87;101533.69;4943309;28;20045;-75
2022/03/28 10:19:22;;;;;;;20.48;16.33;;;;;;;23.60;36.59;101532.34;4998866;28;20398;-74
2022/03/28 10:21:47;;;;;;;21.70;16.80;;;;;;;23.57;35.47;101523.84;4981716;27;20657;-74
2022/03/28 10:24:14;;;;;;;21.38;16.05;;;;;;;23.51;35.58;101533.59;4982666;27;20705;-74
2022/03/28 10:26:44;;;;;;;18.98;15.85;;;;;;;23.44;35.25;101535.44;4971055;27;20402;-75
2022/03/28 10:29:12;;;;;;;16.95;14.65;;;;;;;23.67;33.86;101519.69;4977554;27;20422;-75
2022/03/28 10:32:00;;;;;;;17.80;15.45;;;;;;;23.82;33.86;101513.28;4919382;27;20009;-75
2022/03/28 10:34:52;;;;;;;16.95;15.23;;;;;;;23.94;33.37;101513.50;4890698;28;20428;-75
2022/03/28 10:37:34;;;;;;;20.85;15.65;;;;;;;23.78;33.49;101507.44;4903074;28;20529;-73
2022/03/28 10:40:11;;;;;;;22.50;15.93;;;;;;;24.71;32.56;101499.53;4927628;27;20441;-74
2022/03/28 10:42:37;;;;;;;19.02;15.15;;;;;;;24.50;32.78;101498.72;4985062;27;20028;-73
2022/03/28 10:45:05;;;;;;;21.13;15.70;;;;;;;24.71;32.32;101494.13;4988806;27;20783;-72
2022/03/28 10:47:39;;;;;;;17.90;15.38;;;;;;;25.51;31.26;101488.38;5009499;27;20496;-74
2022/03/28 10:50:04;;;;;;;18.67;14.90;;;;;;;25.79;30.44;101487.97;5015855;27;20114;-78
2022/03/28 10:52:30;;;;;;;22.33;16.08;;;;;;;25.43;30.97;101486.72;4971543;28;20812;-77
2022/03/28 10:54:55;;;;;;;17.45;15.13;;;;;;;25.26;30.59;101494.50;4897040;28;20041;-77
2022/03/28 10:57:26;;;;;;;17.27;15.38;;;;;;;25.46;30.69;101490.91;4888586;27;20074;-78
2022/03/28 11:00:09;;;;;;;17.65;14.23;;;;;;;25.52;29.88;101481.88;4914871;27;20005;-76
2022/03/28 11:02:34;;;;;;;15.73;13.90;;;;;;;25.85;29.64;101478.13;4897480;27;20025;-78
2022/03/28 11:05:06;;;;;;;16.05;14.25;;;;;;;26.20;30.58;101473.03;4906851;28;20639;-77
2022/03/28 11:07:31;;;;;;;18.38;16.02;;;;;;;26.32;29.68;101473.13;4872155;28;20006;-76
2022/03/28 11:10:04;;;;;;;16.50;14.98;;;;;;;26.14;29.60;101463.06;4874904;28;20558;-75
2022/03/28 11:12:30;;;;;;;17.13;15.10;;;;;;;26.77;30.15;101465.78;4907621;27;20887;-76
2022/03/28 11:15:05;;;;;;;18.40;15.38;;;;;;;26.72;27.75;101455.56;4919196;27;20021;-78
2022/03/28 11:17:51;;;;;;;19.58;16.60;;;;;;;26.87;28.57;101457.91;4923938;27;20588;-76